Sierra Nevada Aquatic Research Lab (SNARL) Reserve, California Weather observations

Data are for 10 minute period ending at time listed.
 Day   Time   Solar   Ave.   Ave.  Ave.  Vector  Max.   Baro.   Total    
  of    of     Rad.   Air    Rel.  Wind   Wind   Wind  Press.  Precip.   
Year   Day            Temp.  Hum.  Speed  Dir.   Gust                    
2016   (PST)  Kw/m2    F      %     mph   deg.    mph    mb.     in.     
-------------------------------------------------------------------------
  36    7:20   0.01    5.9    86    2.3   245     3.9   793.8    0.00 
  36    7:30   0.02    6.5    84    1.2   244     1.7   793.8    0.00 
  36    7:40   0.08    8.0    81    1.0   211     4.0   793.9    0.00 
  36    7:50   0.12   12.0    79    2.0   264     3.9   793.9    0.00 
  36    8:00   0.15   15.8    71    2.8   328     5.9   794.0    0.00 
  36    8:10   0.18   15.6    69    1.4   289     5.1   794.0    0.00 
  36    8:20   0.22   18.0    68    1.1   292     3.1   794.0    0.00 
  36    8:30   0.25   21.3    64    0.5   214     1.7   793.8    0.00 
  36    8:40   0.28   23.2    60    1.5   329     3.5   793.8    0.00 
  36    8:50   0.31   24.4    60    0.5   272     2.3   793.8    0.00 
  36    9:00   0.34   26.9    54    1.3   353     3.1   793.8    0.00 
  36    9:10   0.37   25.2    57    1.4    23     3.4   793.9    0.00 
  36    9:20   0.40   25.0    59    1.6    34     3.2   794.0    0.00 
  36    9:30   0.43   28.8    53    0.2   107     1.6   794.2    0.00 
  36    9:40   0.46   32.8    47    0.2   226     1.2   794.3    0.00 
  36    9:50   0.48   34.9    44    1.1    64     2.6   794.4    0.00 
  36   10:00   0.50   30.5    52    1.8    80     2.8   794.4    0.00 
  36   10:10   0.53   30.5    51    2.1    46     3.7   794.4    0.00 
  36   10:20   0.55   30.2    55    2.6    68     3.8   794.5    0.00 
  36   10:30   0.56   31.7    53    1.2    98     2.8   794.5    0.00 
  36   10:40   0.58   34.0    49    1.2    90     2.6   794.4    0.00 
  36   10:50   0.60   34.3    49    1.8    75     2.7   794.4    0.00 
  36   11:00   0.61   34.7    49    1.4    46     2.9   794.4    0.00 
  36   11:10   0.63   35.7    47    1.8    53     3.3   794.3    0.00 
  36   11:20   0.64   35.1    47    2.7    54     4.4   794.3    0.00 
  36   11:30   0.65   35.2    48    2.4    95     4.4   794.2    0.00 
  36   11:40   0.65   39.0    43    0.5   178     2.1   794.2    0.00 
  36   11:50   0.67   40.7    40    0.8   189     3.0   794.1    0.00 
  36   12:00   0.66   42.5    35    0.5   220     2.3   793.9    0.00 
  36   12:10   0.66   42.1    34    1.2   180     2.3   793.9    0.00 
  36   12:20   0.67   42.4    35    0.9     4     3.4   793.8    0.00 
  36   12:30   0.67   42.6    35    0.9    82     2.0   793.6    0.00 
  36   12:40   0.66   43.2    33    1.4    60     3.1   793.5    0.00 
  36   12:50   0.65   41.0    37    2.5    36     3.9   793.4    0.00 
  36   13:00   0.64   40.7    37    2.2    47     3.8   793.4    0.00 
  36   13:10   0.63   41.5    36    3.2    88     5.6   793.3    0.00 
  36   13:20   0.62   40.7    36    3.9    88     6.0   793.2    0.00 
  36   13:30   0.62   40.7    33    2.7    70     5.0   793.2    0.00 
  36   13:40   0.59   42.0    32    1.2   109     3.6   793.2    0.00 
  36   13:50   0.58   43.1    31    1.2   126     2.8   793.1    0.00 
  36   14:00   0.56   42.4    34    4.1    91     6.0   793.1    0.00 
  36   14:10   0.55   41.3    32    2.3    89     5.0   793.1    0.00 
  36   14:20   0.52   43.0    31    2.0    54     4.1   793.1    0.00 
  36   14:30   0.50   42.6    30    2.1    32     3.6   793.1    0.00 
  36   14:40   0.47   43.8    29    1.6     8     3.4   793.1    0.00 
  36   14:50   0.43   44.2    28    1.3    27     2.8   793.1    0.00 
  36   15:00   0.42   45.0    31    1.3   253     3.3   793.1    0.00 
  36   15:10   0.39   44.7    31    1.9   132     3.7   793.0    0.00 
  36   15:20   0.37   45.9    29    1.2   154     3.8   793.0    0.00 
  36   15:30   0.33   45.5    28    1.5   137     2.6   793.0    0.00 
  36   15:40   0.30   46.2    32    1.3   248     2.5   793.0    0.00 
  36   15:50   0.27   44.5    39    1.8   250     3.1   793.1    0.00 
  36   16:00   0.24   43.9    38    1.0   267     1.8   793.1    0.00 
  36   16:10   0.20   44.1    41    1.9   275     2.9   793.1    0.00 
  36   16:20   0.15   42.1    44    2.1   257     2.9   793.1    0.00 
  36   16:30   0.06   37.7    54    1.5   225     3.1   793.1    0.00 
  36   16:40   0.04   33.6    62    1.8   187     3.8   793.0    0.00 
  36   16:50   0.03   31.9    66    3.3   231     4.8   793.0    0.00 
  36   17:00   0.03   30.9    67    1.9   233     4.2   793.0    0.00 
  36   17:10   0.01   30.1    68    3.3   240     4.7   793.0    0.00 
  36   17:20   0.01   29.6    68    3.8   232     6.1   793.1    0.00 
  36   17:30   0.00   28.8    68    3.2   227     4.7   793.0    0.00 
  36   17:40   0.00   28.9    66    2.7   238     4.2   792.9    0.00 
  36   17:50   0.00   28.5    69    2.6   253     3.6   792.9    0.00 
  36   18:00   0.00   27.6    73    1.4   283     2.7   792.9    0.00 
  36   18:10   0.00   26.4    75    3.3   240     5.1   793.0    0.00 
  36   18:20   0.00   26.0    75    3.0   256     4.6   793.1    0.00 
  36   18:30   0.00   25.9    73    1.4   227     3.1   793.2    0.00 
  36   18:40   0.00   25.6    77    2.3   305     3.7   793.3    0.00 
  36   18:50   0.00   24.5    78    1.3   203     2.0   793.4    0.00 
  36   19:00   0.00   23.5    80    1.8   242     4.6   793.1    0.00 
  36   19:10   0.00   23.5    80    1.8   262     3.7   793.1    0.00 
  36   19:20   0.00   23.6    80    1.9   317     3.4   793.1    0.00 
  36   19:30   0.00   23.3    79    1.7   267     2.6   793.1    0.00 
  36   19:40   0.00   22.5    81    1.3   220     2.0   793.0    0.00 
  36   19:50   0.00   22.4    80    1.1   282     2.8   793.1    0.00 
  36   20:00   0.00   22.1    78    2.1   209     3.5   793.2    0.00 
  36   20:10   0.00   21.3    80    1.6   326     3.1   793.2    0.00 
  36   20:20   0.00   20.9    79    0.6   230     1.5   793.3    0.00 
  36   20:30   0.00   19.7    83    1.5   252     2.1   793.3    0.00 
  36   20:40   0.00   19.1    83    0.7   239     1.9   793.2    0.00 
  36   20:50   0.00   19.9    82    1.5   288     3.9   793.2    0.00 
  36   21:00   0.00   19.6    82    0.8   242     2.8   793.2    0.00 
  36   21:10   0.00   18.6    82    0.4   259     2.1   793.3    0.00 
  36   21:20   0.00   18.0    87    2.3   291     3.3   793.4    0.00 
  36   21:30   0.00   17.5    87    2.9   306     5.0   793.5    0.00 
  36   21:40   0.00   17.2    82    0.6   229     2.3   793.7    0.00 
  36   21:50   0.00   16.5    84    1.0   229     2.0   793.7    0.00 
  36   22:00   0.00   16.4    84    2.9   299     5.6   793.7    0.00 
  36   22:10   0.00   16.9    84    2.5   309     5.7   793.8    0.00 
  36   22:20   0.00   17.3    81    1.5    75     3.4   793.7    0.00 
  36   22:30   0.00   16.3    81    2.9   222     4.1   793.7    0.00 
  36   22:40   0.00   16.8    82    2.0   272     2.8   793.7    0.00 
  36   22:50   0.00   16.3    80    1.0   260     2.5   793.8    0.00 
  36   23:00   0.00   15.2    83    1.9   268     4.6   793.9    0.00 
  36   23:10   0.00   16.7    80    2.5   283     5.0   794.2    0.00 
  36   23:20   0.00   15.7    80    1.1   230     2.6   794.1    0.00 
  36   23:30   0.00   15.7    83    2.4   276     3.6   794.0    0.00 
  36   23:40   0.00   15.5    84    3.0   321     6.1   794.1    0.00 
  36   23:50   0.00   14.4    83    1.3   295     2.7   794.1    0.00 
  37    0:00   0.00   12.9    84    0.4   179     1.6   794.2    0.00 
  37    0:10   0.00   13.1    87    2.7   302     5.8   794.3    0.00 
  37    0:20   0.00   14.8    83    3.8   305     7.7   794.3    0.00 
  37    0:30   0.00   14.3    83    2.1   316     5.3   794.3    0.00 
  37    0:40   0.00   12.3    84    0.6   259     2.3   794.2    0.00 
  37    0:50   0.00   12.5    87    1.3   316     3.9   794.3    0.00 
  37    1:00   0.00   12.6    85    1.1   290     2.9   794.5    0.00 
  37    1:10   0.00   12.4    87    1.5   221     2.9   794.5    0.00 
  37    1:20   0.00   13.0    85    1.8   280     3.4   794.4    0.00 
  37    1:30   0.00   12.1    86    1.8     0     3.4   794.1    0.00 
  37    1:40   0.00   11.0    87    1.1   159     2.2   794.1    0.00 
  37    1:50   0.00   12.0    88    2.5   287     4.3   794.1    0.00 
  37    2:00   0.00   12.4    86    2.7   233     5.0   794.3    0.00 
  37    2:10   0.00   13.0    81    2.5   187     4.9   794.1    0.00 
  37    2:20   0.00   13.5    82    3.4   329     6.7   793.8    0.00 
  37    2:30   0.00   12.4    83    0.7   100     2.3   793.7    0.00 
  37    2:40   0.00   13.4    84    4.2   300     7.2   793.8    0.00 
  37    2:50   0.00   13.4    82    3.5   224     5.6   794.0    0.00 
  37    3:00   0.00   13.0    83    2.3   290     4.5   793.9    0.00 
  37    3:10   0.00   12.5    83    4.2   321     7.1   793.6    0.00 
  37    3:20   0.00   12.9    84    2.5   218     4.7   793.5    0.00 
  37    3:30   0.00   13.2    83    0.4    75     1.8   793.2    0.00 
  37    3:40   0.00   14.4    81    2.3   325     7.0   793.1    0.00 
  37    3:50   0.00   14.4    81    2.2   262     6.4   793.1    0.00 
  37    4:00   0.00   15.1    79    4.4   314     7.2   793.1    0.00 
  37    4:10   0.00   14.0    81    2.5   308     5.0   793.3    0.00 
  37    4:20   0.00   13.2    81    2.0   281     4.8   793.2    0.00 
  37    4:30   0.00   12.3    85    1.9   335     3.5   793.0    0.00 
  37    4:40   0.00   11.7    85    1.9   168     3.6   793.0    0.00 
  37    4:50   0.00   12.4    86    2.7   240     4.7   793.1    0.00 
  37    5:00   0.00   12.7    82    1.0   259     2.9   793.1    0.00 
  37    5:10   0.00   12.0    85    1.7   273     3.3   793.2    0.00 
  37    5:20   0.00   11.2    85    1.3   216     2.1   793.1    0.00 
  37    5:30   0.00   12.3    87    1.9   333     4.6   793.1    0.00 
  37    5:40   0.00   13.0    81    3.9   354     6.4   793.3    0.00 
  37    5:50   0.00   12.5    85    1.7    82     3.7   793.5    0.00 
  37    6:00   0.00   12.6    84    1.1    96     3.0   793.6    0.00 
  37    6:10   0.00   11.3    84    0.8   136     2.2   793.6    0.00 
  37    6:20   0.00   10.9    87    1.6   239     2.9   793.5    0.00 
  37    6:30   0.00   11.5    84    1.2   266     3.2   793.5    0.00 
  37    6:40   0.00   10.7    85    1.3   102     2.8   793.5    0.00 
  37    6:50   0.00   10.6    86    0.5   260     1.5   793.6    0.00 
  37    7:00   0.00   10.9    85    0.0   238     0.6   793.7    0.00 
  37    7:10   0.00   10.7    85    1.3   224     3.1   793.8    0.00 

Return to SNARL Reserve graphs page.


Western Regional Climate Center,wrcc@dri.edu